createdAt,value
2023-04-25T00:00:51.498Z,111.75
2023-04-25T00:01:51.539Z,103.35
2023-04-25T00:02:51.763Z,105.94
2023-04-25T00:03:52.091Z,111.65
2023-04-25T00:04:51.941Z,108.10
2023-04-25T00:05:51.829Z,112.03
2023-04-25T00:06:51.848Z,116.04
2023-04-25T00:07:51.924Z,112.45
2023-04-25T00:08:52.002Z,117.74
2023-04-25T00:09:52.069Z,117.01
2023-04-25T00:10:52.099Z,114.95
2023-04-25T00:11:52.170Z,114.08
2023-04-25T00:12:52.237Z,116.91
2023-04-25T00:13:52.294Z,117.02
2023-04-25T00:14:52.350Z,119.23
2023-04-25T00:15:52.460Z,115.93
2023-04-25T00:16:52.467Z,115.75
2023-04-25T00:17:52.677Z,116.34
2023-04-25T00:18:52.645Z,115.82
2023-04-25T00:19:52.664Z,118.21
2023-04-25T00:20:52.725Z,118.53
2023-04-25T00:21:52.805Z,118.79
2023-04-25T00:22:52.869Z,119.47
2023-04-25T00:23:53.103Z,118.48
2023-04-25T00:24:52.973Z,118.57
2023-04-25T00:25:53.034Z,118.74
2023-04-25T00:26:53.089Z,119.83
2023-04-25T00:27:53.161Z,119.45
2023-04-25T00:28:53.238Z,118.97
2023-04-25T00:29:53.282Z,119.47
2023-04-25T00:30:53.334Z,117.24
2023-04-25T00:31:53.430Z,119.32
2023-04-25T00:32:53.501Z,119.88
2023-04-25T00:33:53.701Z,123.32
2023-04-25T00:34:53.606Z,122.77
2023-04-25T00:35:53.660Z,122.01
2023-04-25T00:36:53.691Z,122.14
2023-04-25T00:37:53.777Z,125.03
2023-04-25T00:38:53.833Z,121.00
2023-04-25T00:39:53.888Z,126.44
2023-04-25T00:40:53.969Z,123.78
2023-04-25T00:41:54.055Z,126.17
2023-04-25T00:42:54.071Z,126.95
2023-04-25T00:43:54.166Z,125.47
2023-04-25T00:44:54.214Z,128.60
2023-04-25T00:45:54.292Z,125.34
2023-04-25T00:46:54.428Z,127.03
2023-04-25T00:47:54.422Z,125.47
2023-04-25T00:48:54.476Z,128.56
2023-04-25T00:49:54.528Z,126.61
2023-04-25T00:50:54.580Z,128.84
2023-04-25T00:51:54.658Z,128.02
2023-04-25T00:52:54.740Z,128.60
2023-04-25T00:53:54.784Z,128.39
2023-04-25T00:54:54.851Z,128.51
2023-04-25T00:55:54.889Z,130.84
2023-04-25T00:56:54.965Z,134.10
2023-04-25T00:57:55.025Z,134.62
2023-04-25T00:58:55.073Z,134.68
2023-04-25T00:59:55.136Z,133.99
2023-04-25T01:00:55.244Z,131.83
2023-04-25T01:01:55.285Z,131.92
2023-04-25T01:02:55.471Z,130.93
2023-04-25T01:03:55.796Z,129.98
2023-04-25T01:04:55.456Z,133.48
2023-04-25T01:05:55.510Z,129.75
2023-04-25T01:06:55.560Z,126.44
2023-04-25T01:07:55.608Z,127.84
2023-04-25T01:08:55.687Z,127.62
2023-04-25T01:09:55.753Z,129.69
2023-04-25T01:10:55.820Z,133.32
2023-04-25T01:11:55.858Z,133.84
2023-04-25T01:12:55.928Z,134.24
2023-04-25T01:13:55.996Z,132.77
2023-04-25T01:14:56.053Z,128.97
2023-04-25T01:15:56.142Z,133.32
2023-04-25T01:16:56.219Z,134.41
2023-04-25T01:17:56.302Z,131.03
2023-04-25T01:18:56.303Z,132.91
2023-04-25T01:19:56.379Z,134.62
2023-04-25T01:20:56.433Z,134.16
2023-04-25T01:21:56.499Z,131.90
2023-04-25T01:22:56.550Z,133.51
2023-04-25T01:23:56.634Z,131.85
2023-04-25T01:24:56.685Z,134.01
2023-04-25T01:25:56.746Z,133.10
2023-04-25T01:26:56.817Z,131.06
2023-04-25T01:27:56.875Z,134.05
2023-04-25T01:28:56.917Z,132.38
2023-04-25T01:29:56.999Z,134.49
2023-04-25T01:30:57.035Z,133.81
2023-04-25T01:31:57.236Z,135.86
2023-04-25T01:32:57.213Z,136.61
2023-04-25T01:33:57.237Z,133.83
2023-04-25T01:34:57.298Z,135.06
2023-04-25T01:35:57.349Z,136.70
2023-04-25T01:36:57.416Z,137.89
2023-04-25T01:37:57.521Z,135.16
2023-04-25T01:38:57.551Z,137.62
2023-04-25T01:39:57.617Z,139.07
2023-04-25T01:40:57.662Z,131.81
2023-04-25T01:41:57.779Z,134.10
2023-04-25T01:42:57.784Z,133.80
2023-04-25T01:43:57.861Z,132.00
2023-04-25T01:44:57.921Z,135.71
2023-04-25T01:45:58.051Z,134.73
2023-04-25T01:46:58.047Z,134.74
2023-04-25T01:47:58.207Z,136.16
2023-04-25T01:48:58.183Z,134.88
2023-04-25T01:49:58.216Z,133.63
2023-04-25T01:50:58.284Z,134.73
2023-04-25T01:51:58.352Z,131.49
2023-04-25T01:52:58.405Z,133.04
2023-04-25T01:54:00.809Z,136.19
2023-04-25T01:54:58.617Z,136.47
2023-04-25T01:55:58.684Z,136.49
2023-04-25T01:56:58.770Z,136.29
2023-04-25T01:57:58.797Z,131.50
2023-04-25T01:58:58.855Z,136.37
2023-04-25T01:59:58.921Z,138.19
2023-04-25T02:00:59.033Z,135.10
2023-04-25T02:01:59.059Z,138.15
2023-04-25T02:02:59.238Z,140.00
2023-04-25T02:03:59.263Z,138.39
2023-04-25T02:04:59.257Z,138.42
2023-04-25T02:05:59.313Z,137.54
2023-04-25T02:06:59.360Z,137.06
2023-04-25T02:07:59.441Z,138.49
2023-04-25T02:08:59.501Z,138.84
2023-04-25T02:09:59.548Z,138.63
2023-04-25T02:10:59.614Z,135.88
2023-04-25T02:11:59.690Z,138.43
2023-04-25T02:12:59.751Z,137.20
2023-04-25T02:13:59.828Z,138.21
2023-04-25T02:14:59.886Z,136.21
2023-04-25T02:16:00.060Z,137.83
2023-04-25T02:17:00.218Z,138.92
2023-04-25T02:18:00.073Z,136.56
2023-04-25T02:19:00.166Z,138.92
2023-04-25T02:20:00.211Z,141.33
2023-04-25T02:21:00.248Z,139.60
2023-04-25T02:22:00.291Z,141.61
2023-04-25T02:23:00.355Z,141.38
2023-04-25T02:24:00.404Z,141.58
2023-04-25T02:25:00.500Z,141.93
2023-04-25T02:26:00.538Z,140.93
2023-04-25T02:27:00.636Z,140.96
2023-04-25T02:28:00.660Z,139.94
2023-04-25T02:29:00.742Z,143.03
2023-04-25T02:30:00.808Z,143.10
2023-04-25T02:31:00.910Z,142.70
2023-04-25T02:32:00.927Z,143.41
2023-04-25T02:33:01.010Z,143.04
2023-04-25T02:34:01.036Z,142.04
2023-04-25T02:35:01.114Z,140.15
2023-04-25T02:36:01.161Z,140.01
2023-04-25T02:37:01.247Z,142.11
2023-04-25T02:38:01.317Z,141.77
2023-04-25T02:39:01.371Z,141.27
2023-04-25T02:40:01.441Z,142.19
2023-04-25T02:41:01.479Z,142.72
2023-04-25T02:42:01.538Z,142.00
2023-04-25T02:43:01.586Z,140.49
2023-04-25T02:44:01.646Z,142.93
2023-04-25T02:45:01.731Z,143.51
2023-04-25T02:46:01.784Z,143.04
2023-04-25T02:47:01.873Z,143.19
2023-04-25T02:48:01.946Z,140.33
2023-04-25T02:49:01.964Z,141.83
2023-04-25T02:50:02.038Z,141.74
2023-04-25T02:51:02.097Z,142.60
2023-04-25T02:52:02.135Z,143.23
2023-04-25T02:53:02.208Z,144.68
2023-04-25T02:54:02.274Z,144.26
2023-04-25T02:55:02.342Z,142.63
2023-04-25T02:56:02.391Z,142.16
2023-04-25T02:57:02.453Z,142.69
2023-04-25T02:58:02.497Z,143.97
2023-04-25T02:59:02.545Z,143.52
2023-04-25T03:00:02.690Z,142.78
2023-04-25T03:01:02.699Z,143.35
2023-04-25T03:02:02.735Z,142.88
2023-04-25T03:03:02.923Z,141.19
2023-04-25T03:04:02.894Z,142.29
2023-04-25T03:05:02.936Z,141.33
2023-04-25T03:06:02.997Z,144.32
2023-04-25T03:07:03.059Z,144.49
2023-04-25T03:08:03.101Z,143.65
2023-04-25T03:09:03.170Z,145.53
2023-04-25T03:10:03.270Z,143.91
2023-04-25T03:11:03.291Z,141.77
2023-04-25T03:12:03.364Z,141.86
2023-04-25T03:13:03.426Z,143.55
2023-04-25T03:14:03.473Z,141.49
2023-04-25T03:15:03.548Z,143.55
2023-04-25T03:16:03.667Z,143.14
2023-04-25T03:17:03.717Z,144.58
2023-04-25T03:18:03.779Z,144.20
2023-04-25T03:19:03.797Z,144.82
2023-04-25T03:20:03.863Z,140.55
2023-04-25T03:21:03.930Z,141.10
2023-04-25T03:22:04.000Z,139.34
2023-04-25T03:23:04.028Z,139.40
2023-04-25T03:24:04.107Z,141.92
2023-04-25T03:25:04.143Z,142.04
2023-04-25T03:26:04.197Z,142.22
2023-04-25T03:27:04.272Z,144.32
2023-04-25T03:28:04.310Z,144.53
2023-04-25T03:29:04.362Z,142.83
2023-04-25T03:30:04.443Z,141.03
2023-04-25T03:31:04.515Z,142.61
2023-04-25T03:32:04.580Z,144.13
2023-04-25T03:33:04.677Z,142.90
2023-04-25T03:34:04.702Z,142.25
2023-04-25T03:35:04.746Z,140.58
2023-04-25T03:36:04.809Z,140.99
2023-04-25T03:37:04.870Z,139.04
2023-04-25T03:38:04.941Z,139.25
2023-04-25T03:39:04.966Z,142.40
2023-04-25T03:40:05.021Z,137.26
2023-04-25T03:41:05.092Z,140.34
2023-04-25T03:42:05.153Z,138.05
2023-04-25T03:43:05.231Z,136.44
2023-04-25T03:44:05.300Z,136.84
2023-04-25T03:45:05.347Z,140.33
2023-04-25T03:46:05.449Z,138.59
2023-04-25T03:47:05.471Z,137.74
2023-04-25T03:48:05.554Z,136.54
2023-04-25T03:49:05.588Z,139.23
2023-04-25T03:50:05.660Z,138.41
2023-04-25T03:51:05.697Z,137.07
2023-04-25T03:52:05.796Z,138.97
2023-04-25T03:53:05.842Z,140.22
2023-04-25T03:54:05.898Z,139.40
2023-04-25T03:55:05.978Z,139.33
2023-04-25T03:56:06.043Z,139.55
2023-04-25T03:57:06.096Z,137.76
2023-04-25T03:58:06.144Z,138.33
2023-04-25T03:59:06.206Z,136.77
2023-04-25T04:00:06.265Z,134.92
2023-04-25T04:01:06.348Z,137.92
2023-04-25T04:02:06.434Z,137.38
2023-04-25T04:03:06.609Z,137.76
2023-04-25T04:04:06.736Z,138.69
2023-04-25T04:05:06.872Z,135.83
2023-04-25T04:06:06.706Z,137.03
2023-04-25T04:07:06.730Z,138.25
2023-04-25T04:08:06.780Z,136.90
2023-04-25T04:09:06.864Z,138.43
2023-04-25T04:10:06.900Z,137.34
2023-04-25T04:11:06.992Z,138.50
2023-04-25T04:12:07.047Z,137.36
2023-04-25T04:13:07.085Z,134.87
2023-04-25T04:14:07.145Z,137.97
2023-04-25T04:15:07.229Z,138.96
2023-04-25T04:16:07.321Z,136.59
2023-04-25T04:17:07.348Z,137.81
2023-04-25T04:18:07.467Z,138.46
2023-04-25T04:19:07.460Z,136.86
2023-04-25T04:20:07.520Z,139.60
2023-04-25T04:21:07.569Z,138.88
2023-04-25T04:22:07.654Z,139.95
2023-04-25T04:23:07.703Z,142.11
2023-04-25T04:24:07.744Z,139.49
2023-04-25T04:25:07.813Z,140.23
2023-04-25T04:26:07.894Z,140.54
2023-04-25T04:27:07.949Z,139.25
2023-04-25T04:28:07.986Z,140.41
2023-04-25T04:29:08.082Z,140.75
2023-04-25T04:30:08.134Z,141.79
2023-04-25T04:31:08.275Z,140.36
2023-04-25T04:32:08.261Z,142.87
2023-04-25T04:33:08.426Z,140.45
2023-04-25T04:34:08.365Z,139.64
2023-04-25T04:35:08.421Z,141.30
2023-04-25T04:36:08.502Z,140.34
2023-04-25T04:37:08.553Z,141.79
2023-04-25T04:38:08.618Z,141.62
2023-04-25T04:39:08.682Z,142.85
2023-04-25T04:40:08.748Z,141.42
2023-04-25T04:41:08.804Z,142.76
2023-04-25T04:42:08.869Z,139.96
2023-04-25T04:43:08.920Z,139.01
2023-04-25T04:44:09.034Z,140.40
2023-04-25T04:45:09.036Z,141.51
2023-04-25T04:46:09.126Z,137.77
2023-04-25T04:47:09.158Z,138.39
2023-04-25T04:48:09.260Z,138.72
2023-04-25T04:49:09.302Z,139.20
2023-04-25T04:50:09.348Z,140.58
2023-04-25T04:51:09.396Z,141.57
2023-04-25T04:52:09.485Z,140.04
2023-04-25T04:53:09.526Z,139.64
2023-04-25T04:54:09.590Z,141.08
2023-04-25T04:55:09.667Z,141.99
2023-04-25T04:56:09.703Z,142.65
2023-04-25T04:57:09.782Z,143.44
2023-04-25T04:58:09.824Z,142.49
2023-04-25T04:59:09.881Z,142.08
2023-04-25T05:00:09.934Z,143.06
2023-04-25T05:01:10.093Z,141.33
2023-04-25T05:02:10.256Z,139.67
2023-04-25T05:03:10.398Z,140.45
2023-04-25T05:04:10.323Z,140.21
2023-04-25T05:05:10.219Z,139.04
2023-04-25T05:06:10.284Z,139.95
2023-04-25T05:07:10.346Z,139.71
2023-04-25T05:08:10.411Z,139.01
2023-04-25T05:09:10.455Z,137.52
2023-04-25T05:10:10.511Z,138.25
2023-04-25T05:11:10.503Z,133.88
2023-04-25T05:12:10.540Z,133.25
2023-04-25T05:13:10.564Z,130.41
2023-04-25T05:14:10.590Z,112.20
2023-04-25T05:15:10.607Z,91.71
2023-04-25T05:16:10.706Z,77.27
2023-04-25T05:17:10.745Z,65.29
2023-04-25T05:18:10.808Z,70.16
2023-04-25T05:19:10.774Z,58.38
2023-04-25T05:20:10.862Z,56.12
2023-04-25T05:21:10.859Z,53.00
2023-04-25T05:22:10.898Z,60.71
2023-04-25T05:23:10.943Z,67.42
2023-04-25T05:24:10.949Z,69.63
2023-04-25T05:25:11.145Z,67.35
2023-04-25T05:26:11.032Z,76.79
2023-04-25T05:27:11.042Z,58.59
2023-04-25T05:28:11.051Z,19.84
2023-04-25T05:29:11.110Z,11.94
2023-04-25T05:30:11.162Z,20.89
2023-04-25T05:31:11.189Z,10.24
2023-04-25T05:32:11.322Z,5.33
2023-04-25T05:33:11.310Z,0.00
2023-04-25T05:34:11.275Z,3.69
2023-04-25T05:35:11.804Z,28.83
2023-04-25T05:36:11.282Z,39.53
2023-04-25T05:37:11.339Z,41.86
2023-04-25T05:38:11.364Z,53.64
2023-04-25T05:39:11.440Z,55.87
2023-04-25T05:40:11.536Z,60.79
2023-04-25T05:41:11.503Z,66.16
2023-04-25T05:42:11.507Z,72.50
2023-04-25T05:43:11.532Z,76.23
2023-04-25T05:44:11.568Z,89.20
2023-04-25T05:45:11.632Z,91.13
2023-04-25T05:46:11.786Z,94.00
2023-04-25T05:47:12.108Z,88.82
2023-04-25T05:48:12.250Z,88.88
2023-04-25T05:49:11.836Z,91.35
2023-04-25T05:50:11.884Z,92.51
2023-04-25T05:51:11.922Z,89.92
2023-04-25T05:52:11.967Z,97.19
2023-04-25T05:53:11.993Z,98.38
2023-04-25T05:54:12.044Z,99.67
2023-04-25T05:55:12.060Z,106.89
2023-04-25T05:56:12.082Z,113.15
2023-04-25T05:57:12.104Z,112.72
2023-04-25T05:58:12.129Z,113.55
2023-04-25T05:59:12.129Z,121.65
2023-04-25T06:00:12.152Z,123.65
2023-04-25T06:01:12.164Z,122.16
2023-04-25T06:02:13.139Z,126.11
2023-04-25T06:03:12.290Z,123.73
2023-04-25T06:04:12.478Z,125.91
2023-04-25T06:05:12.300Z,138.49
2023-04-25T06:06:12.159Z,143.36
2023-04-25T06:07:12.188Z,147.52
2023-04-25T06:08:12.201Z,150.98
2023-04-25T06:09:14.408Z,145.33
2023-04-25T06:10:12.338Z,142.86
2023-04-25T06:11:12.412Z,143.20
2023-04-25T06:12:12.457Z,155.49
2023-04-25T06:13:12.674Z,150.97
2023-04-25T06:14:12.556Z,148.34
2023-04-25T06:15:24.318Z,144.30
2023-04-25T06:16:13.693Z,144.45
2023-04-25T06:17:12.630Z,145.05
2023-04-25T06:18:12.668Z,146.86
2023-04-25T06:19:12.579Z,139.77
2023-04-25T06:20:12.596Z,136.08
2023-04-25T06:21:12.585Z,140.06
2023-04-25T06:22:12.566Z,137.92
2023-04-25T06:23:12.575Z,128.51
2023-04-25T06:24:12.551Z,132.02
2023-04-25T06:25:12.555Z,128.76
2023-04-25T06:26:12.536Z,129.14
2023-04-25T06:27:12.691Z,147.70
2023-04-25T06:28:12.549Z,141.62
2023-04-25T06:29:12.515Z,135.44
2023-04-25T06:30:12.518Z,120.22
2023-04-25T06:31:12.717Z,113.46
2023-04-25T06:32:12.515Z,72.36
2023-04-25T06:33:12.696Z,58.78
2023-04-25T06:34:12.498Z,41.27
2023-04-25T06:35:12.477Z,41.49
2023-04-25T06:36:12.501Z,70.86
2023-04-25T06:37:12.561Z,85.21
2023-04-25T06:38:12.680Z,103.66
2023-04-25T06:39:12.552Z,114.08
2023-04-25T06:40:12.583Z,120.22
2023-04-25T06:41:12.637Z,129.76
2023-04-25T06:42:12.676Z,130.22
2023-04-25T06:43:13.180Z,135.06
2023-04-25T06:44:12.780Z,137.33
2023-04-25T06:45:12.788Z,151.71
2023-04-25T06:46:13.204Z,167.57
2023-04-25T06:47:12.804Z,179.24
2023-04-25T06:48:13.170Z,193.60
2023-04-25T06:49:12.796Z,201.11
2023-04-25T06:50:12.825Z,188.94
2023-04-25T06:51:13.169Z,205.73
2023-04-25T06:52:12.949Z,222.09
2023-04-25T06:53:12.992Z,223.45
2023-04-25T06:54:13.039Z,230.91
2023-04-25T06:55:13.088Z,231.06
2023-04-25T06:56:13.096Z,234.76
2023-04-25T06:57:13.147Z,235.79
2023-04-25T06:58:13.160Z,235.93
2023-04-25T06:59:13.174Z,202.00
2023-04-25T07:00:13.167Z,209.09
2023-04-25T07:01:13.253Z,226.47
2023-04-25T07:02:13.251Z,208.43
2023-04-25T07:03:13.314Z,192.13
2023-04-25T07:04:13.302Z,156.12
2023-04-25T07:05:13.196Z,137.62
2023-04-25T07:06:13.691Z,119.66
2023-04-25T07:07:13.206Z,126.92
2023-04-25T07:08:13.678Z,105.24
2023-04-25T07:09:13.248Z,97.99
2023-04-25T07:10:13.258Z,74.73
2023-04-25T07:11:13.324Z,80.94
2023-04-25T07:12:13.356Z,75.41
2023-04-25T07:13:13.411Z,85.21
2023-04-25T07:14:13.460Z,83.49
2023-04-25T07:15:13.489Z,77.33
2023-04-25T07:16:13.565Z,106.74
2023-04-25T07:17:13.597Z,89.16
2023-04-25T07:18:13.658Z,87.66
2023-04-25T07:19:13.722Z,118.29
2023-04-25T07:20:13.763Z,116.55
2023-04-25T07:21:13.852Z,110.19
2023-04-25T07:22:13.867Z,97.95
2023-04-25T07:23:13.854Z,80.34
2023-04-25T07:24:13.867Z,69.99
2023-04-25T07:25:13.867Z,57.09
2023-04-25T07:26:13.866Z,48.34
2023-04-25T07:27:13.885Z,35.75
2023-04-25T07:28:14.218Z,42.73
2023-04-25T07:29:13.968Z,25.00
2023-04-25T07:30:13.996Z,30.85
2023-04-25T07:31:14.008Z,36.05
2023-04-25T07:32:14.168Z,42.87
2023-04-25T07:33:14.132Z,40.54
2023-04-25T07:34:14.101Z,40.69
2023-04-25T07:35:14.142Z,53.02
2023-04-25T07:36:14.147Z,59.66
2023-04-25T07:37:14.152Z,72.01
2023-04-25T07:38:14.209Z,84.33
2023-04-25T07:39:14.175Z,105.22
2023-04-25T07:40:14.206Z,108.67
2023-04-25T07:41:14.214Z,125.72
2023-04-25T07:42:14.247Z,163.70
2023-04-25T07:43:14.314Z,160.19
2023-04-25T07:44:14.366Z,158.75
2023-04-25T07:45:14.433Z,174.18
2023-04-25T07:46:14.505Z,226.02
2023-04-25T07:47:14.506Z,218.52
2023-04-25T07:48:14.693Z,231.92
2023-04-25T07:49:14.553Z,196.86
2023-04-25T07:50:14.576Z,218.40
2023-04-25T07:51:14.708Z,219.04
2023-04-25T07:52:14.579Z,219.78
2023-04-25T07:53:14.710Z,230.71
2023-04-25T07:54:14.606Z,224.06
2023-04-25T07:55:14.651Z,237.15
2023-04-25T07:56:14.686Z,227.64
2023-04-25T07:57:14.759Z,245.27
2023-04-25T07:58:14.808Z,221.97
2023-04-25T07:59:14.868Z,202.60
2023-04-25T08:00:14.920Z,159.40
2023-04-25T08:01:15.004Z,150.84
2023-04-25T08:02:15.084Z,151.86
2023-04-25T08:03:15.409Z,166.87
2023-04-25T08:04:15.369Z,183.66
2023-04-25T08:05:15.554Z,193.64
2023-04-25T08:06:15.446Z,195.86
2023-04-25T08:07:15.336Z,201.58
2023-04-25T08:08:15.394Z,165.96
2023-04-25T08:09:15.470Z,135.88
2023-04-25T08:10:15.531Z,138.88
2023-04-25T08:11:15.548Z,148.31
2023-04-25T08:12:15.607Z,169.05
2023-04-25T08:13:15.688Z,180.60
2023-04-25T08:14:15.736Z,171.05
2023-04-25T08:15:15.794Z,172.34
2023-04-25T08:16:15.916Z,165.11
2023-04-25T08:17:15.896Z,161.50
2023-04-25T08:18:17.673Z,150.67
2023-04-25T08:19:16.231Z,168.95
2023-04-25T08:20:16.024Z,129.67
2023-04-25T08:21:16.226Z,123.12
2023-04-25T08:22:16.136Z,109.19
2023-04-25T08:23:16.225Z,99.67
2023-04-25T08:24:16.734Z,81.18
2023-04-25T08:25:16.286Z,118.36
2023-04-25T08:26:16.329Z,138.78
2023-04-25T08:27:16.383Z,153.33
2023-04-25T08:28:16.416Z,141.78
2023-04-25T08:29:16.716Z,161.46
2023-04-25T08:30:16.510Z,188.86
2023-04-25T08:31:16.577Z,203.67
2023-04-25T08:32:16.604Z,136.97
2023-04-25T08:33:16.660Z,106.92
2023-04-25T08:34:16.730Z,128.33
2023-04-25T08:35:16.720Z,113.98
2023-04-25T08:36:24.232Z,148.59
2023-04-25T08:37:17.767Z,148.82
2023-04-25T08:38:16.745Z,120.62
2023-04-25T08:39:17.224Z,99.60
2023-04-25T08:40:16.738Z,107.36
2023-04-25T08:41:16.718Z,93.63
2023-04-25T08:42:16.741Z,78.77
2023-04-25T08:43:16.707Z,60.77
2023-04-25T08:44:16.712Z,34.93
2023-04-25T08:45:16.715Z,12.69
2023-04-25T08:46:16.732Z,6.37
2023-04-25T08:47:16.719Z,12.27
2023-04-25T08:48:16.783Z,13.68
2023-04-25T08:49:16.811Z,18.65
2023-04-25T08:50:16.847Z,12.46
2023-04-25T08:51:17.390Z,13.59
2023-04-25T08:52:16.853Z,13.54
2023-04-25T08:53:16.856Z,19.12
2023-04-25T08:54:30.783Z,23.81
2023-04-25T08:55:17.873Z,20.22
2023-04-25T08:56:17.238Z,18.06
2023-04-25T08:57:16.852Z,17.46
2023-04-25T08:58:16.861Z,16.06
2023-04-25T08:59:16.846Z,11.60
2023-04-25T09:00:16.844Z,22.56
2023-04-25T09:01:16.922Z,27.05
2023-04-25T09:02:16.889Z,26.23
2023-04-25T09:03:17.121Z,24.60
2023-04-25T09:04:16.898Z,25.00
2023-04-25T09:05:17.027Z,24.03
2023-04-25T09:06:16.853Z,25.57
2023-04-25T09:07:16.788Z,25.00
2023-04-25T09:08:16.826Z,24.57
2023-04-25T09:09:16.895Z,25.00
2023-04-25T09:10:16.937Z,23.91
2023-04-25T09:11:17.214Z,32.44
2023-04-25T09:12:17.062Z,30.29
2023-04-25T09:13:17.107Z,28.93
2023-04-25T09:14:17.168Z,29.30
2023-04-25T09:16:17.255Z,24.70
2023-04-25T09:17:17.212Z,24.58
2023-04-25T09:18:17.207Z,25.09
2023-04-25T09:19:17.225Z,27.62
2023-04-25T09:20:17.199Z,25.34
2023-04-25T09:21:17.212Z,25.47
2023-04-25T09:22:17.193Z,26.05
2023-04-25T09:23:17.212Z,27.60
2023-04-25T09:24:17.181Z,27.26
2023-04-25T09:25:17.161Z,32.98
2023-04-25T09:26:17.308Z,35.28
2023-04-25T09:27:17.143Z,42.55
2023-04-25T09:28:17.139Z,41.01
2023-04-25T09:29:17.137Z,54.00
2023-04-25T09:30:17.141Z,59.51
2023-04-25T09:31:17.250Z,59.20
2023-04-25T09:32:17.272Z,71.81
2023-04-25T09:33:17.157Z,85.37
2023-04-25T09:34:17.250Z,93.64
2023-04-25T09:35:17.129Z,97.30
2023-04-25T09:36:17.268Z,109.95
2023-04-25T09:37:17.108Z,112.86
2023-04-25T09:38:17.095Z,123.22
2023-04-25T09:39:17.256Z,140.80
2023-04-25T09:40:17.080Z,199.30
2023-04-25T09:41:17.885Z,235.00
2023-04-25T09:42:17.075Z,244.47
2023-04-25T09:43:17.050Z,230.89
2023-04-25T09:44:17.298Z,198.54
2023-04-25T09:45:17.066Z,172.08
2023-04-25T09:46:17.092Z,158.41
2023-04-25T09:47:17.262Z,147.70
2023-04-25T09:48:17.035Z,136.81
2023-04-25T09:49:17.281Z,126.89
2023-04-25T09:50:17.053Z,111.80
2023-04-25T09:51:17.021Z,106.37
2023-04-25T09:52:17.252Z,100.01
2023-04-25T09:53:16.999Z,92.68
2023-04-25T09:54:16.979Z,82.76
2023-04-25T09:55:16.973Z,78.66
2023-04-25T09:56:16.970Z,73.36
2023-04-25T09:57:16.983Z,66.90
2023-04-25T09:58:16.967Z,63.05
2023-04-25T09:59:17.244Z,74.11
2023-04-25T10:00:16.992Z,82.36
2023-04-25T10:01:17.055Z,95.15
2023-04-25T10:02:17.300Z,106.63
2023-04-25T10:03:17.094Z,108.93
2023-04-25T10:04:16.987Z,123.24
2023-04-25T10:05:16.967Z,139.17
2023-04-25T10:06:16.898Z,142.11
2023-04-25T10:07:16.897Z,158.05
2023-04-25T10:08:16.903Z,102.16
2023-04-25T10:09:16.884Z,96.81
2023-04-25T10:10:16.874Z,109.20
2023-04-25T10:11:16.970Z,119.06
2023-04-25T10:12:16.888Z,133.11
2023-04-25T10:13:16.854Z,158.95
2023-04-25T10:14:16.846Z,185.53
2023-04-25T10:15:16.859Z,188.80
2023-04-25T10:16:16.876Z,193.29
2023-04-25T10:17:16.849Z,192.26
2023-04-25T10:18:16.847Z,197.36
2023-04-25T10:19:16.925Z,205.18
2023-04-25T10:20:17.047Z,207.92
2023-04-25T10:21:17.022Z,202.08
2023-04-25T10:22:17.278Z,207.20
2023-04-25T10:23:17.130Z,213.65
2023-04-25T10:24:17.263Z,213.30
2023-04-25T10:25:17.202Z,216.55
2023-04-25T10:26:17.225Z,225.95
2023-04-25T10:27:17.276Z,231.16
2023-04-25T10:28:17.272Z,233.06
2023-04-25T10:29:17.771Z,233.41
2023-04-25T10:30:17.652Z,224.95
2023-04-25T10:31:17.523Z,228.39
2023-04-25T10:32:17.862Z,229.55
2023-04-25T10:33:17.402Z,235.50
2023-04-25T10:34:17.407Z,240.77
2023-04-25T10:35:17.438Z,245.30
2023-04-25T10:36:17.467Z,247.17
2023-04-25T10:37:17.775Z,248.48
2023-04-25T10:38:17.473Z,247.86
2023-04-25T10:39:17.489Z,249.31
2023-04-25T10:40:17.526Z,249.51
2023-04-25T10:41:17.554Z,249.22
2023-04-25T10:42:17.576Z,248.49
2023-04-25T10:43:18.227Z,249.04
2023-04-25T10:44:17.592Z,249.64
2023-04-25T10:45:17.618Z,249.78
2023-04-25T10:46:17.702Z,248.68
2023-04-25T10:47:17.674Z,249.74
2023-04-25T10:48:17.701Z,248.39
2023-04-25T10:49:17.763Z,230.20
2023-04-25T10:50:17.755Z,233.88
2023-04-25T10:51:17.791Z,246.95
2023-04-25T10:52:17.856Z,248.64
2023-04-25T10:53:17.890Z,224.54
2023-04-25T10:54:17.928Z,231.78
2023-04-25T10:55:17.958Z,241.85
2023-04-25T10:56:17.999Z,241.27
2023-04-25T10:57:18.284Z,240.98
2023-04-25T10:58:18.075Z,239.96
2023-04-25T10:59:18.142Z,235.36
2023-04-25T11:00:18.185Z,240.72
2023-04-25T11:01:18.200Z,243.60
2023-04-25T11:02:18.390Z,246.09
2023-04-25T11:03:18.481Z,247.89
2023-04-25T11:04:18.531Z,250.00
2023-04-25T11:05:20.273Z,249.57
2023-04-25T11:06:18.309Z,249.75
2023-04-25T11:07:18.788Z,249.83
2023-04-25T11:08:18.291Z,249.57
2023-04-25T11:09:18.298Z,248.35
2023-04-25T11:10:18.306Z,248.97
2023-04-25T11:11:18.292Z,249.04
2023-04-25T11:12:18.285Z,249.63
2023-04-25T11:13:18.262Z,248.91
2023-04-25T11:14:18.315Z,205.18
2023-04-25T11:15:18.274Z,213.75
2023-04-25T11:17:19.276Z,227.54
2023-04-25T11:18:18.253Z,228.29
2023-04-25T11:19:18.222Z,229.73
2023-04-25T11:20:18.211Z,231.83
2023-04-25T11:21:18.226Z,234.30
2023-04-25T11:22:18.218Z,235.36
2023-04-25T11:23:18.208Z,235.77
2023-04-25T11:24:18.202Z,235.78
2023-04-25T11:25:18.202Z,236.45
2023-04-25T11:26:18.192Z,235.38
2023-04-25T11:27:18.305Z,235.83
2023-04-25T11:28:18.177Z,235.58
2023-04-25T11:29:18.207Z,235.99
2023-04-25T11:30:18.151Z,236.05
2023-04-25T11:31:18.152Z,236.31
2023-04-25T11:32:18.616Z,236.77
2023-04-25T11:33:18.153Z,237.42
2023-04-25T11:34:18.128Z,237.09
2023-04-25T11:35:18.138Z,236.62
2023-04-25T11:36:18.120Z,236.38
2023-04-25T11:37:18.220Z,236.05
2023-04-25T11:38:18.099Z,235.10
2023-04-25T11:39:18.112Z,235.13
2023-04-25T11:40:18.094Z,233.83
2023-04-25T11:41:18.098Z,234.21
2023-04-25T11:42:18.089Z,232.82
2023-04-25T11:43:21.549Z,232.67
2023-04-25T11:44:18.083Z,232.72
2023-04-25T11:45:18.065Z,232.61
2023-04-25T11:46:18.073Z,231.82
2023-04-25T11:47:18.070Z,231.59
2023-04-25T11:48:18.221Z,230.95
2023-04-25T11:49:18.038Z,229.84
2023-04-25T11:50:18.045Z,229.58
2023-04-25T11:51:18.038Z,229.08
2023-04-25T11:52:18.080Z,228.91
2023-04-25T11:53:18.022Z,228.56
2023-04-25T11:54:18.030Z,228.15
2023-04-25T11:55:18.023Z,227.72
2023-04-25T11:56:17.994Z,227.40
2023-04-25T11:57:18.009Z,227.08
2023-04-25T11:58:17.991Z,226.65
2023-04-25T11:59:17.998Z,225.38
2023-04-25T12:00:18.970Z,225.77
2023-04-25T12:01:17.971Z,224.76
2023-04-25T12:02:18.062Z,224.37
2023-04-25T12:03:18.066Z,224.99
2023-04-25T12:04:18.288Z,224.04
2023-04-25T12:06:18.140Z,223.76
2023-04-25T12:07:17.974Z,223.77
2023-04-25T12:08:17.936Z,222.95
2023-04-25T12:09:17.908Z,223.65
2023-04-25T12:10:17.914Z,222.75
2023-04-25T12:11:17.925Z,221.76
2023-04-25T12:12:17.922Z,222.53
2023-04-25T12:13:17.899Z,222.37
2023-04-25T12:14:17.892Z,222.25
2023-04-25T12:15:18.365Z,222.24
2023-04-25T12:16:17.885Z,222.49
2023-04-25T12:17:17.857Z,220.89
2023-04-25T12:18:18.376Z,220.08
2023-04-25T12:19:17.868Z,197.46
2023-04-25T12:20:17.843Z,199.17
2023-04-25T12:21:17.902Z,208.60
2023-04-25T12:22:17.934Z,197.05
2023-04-25T12:23:18.327Z,190.79
2023-04-25T12:24:18.046Z,160.41
2023-04-25T12:25:18.314Z,131.68
2023-04-25T12:26:18.024Z,104.59
2023-04-25T12:27:18.047Z,90.82
2023-04-25T12:28:18.034Z,88.12
2023-04-25T12:29:18.043Z,77.45
2023-04-25T12:30:18.062Z,70.39
2023-04-25T12:31:18.145Z,57.71
2023-04-25T12:32:18.200Z,56.12
2023-04-25T12:33:18.397Z,48.20
2023-04-25T12:34:18.134Z,68.52
2023-04-25T12:35:18.165Z,86.46
2023-04-25T12:36:18.220Z,103.25
2023-04-25T12:37:18.213Z,137.93